createdAt,value
2019-05-29T03:47:31.030Z,79.10
2019-05-29T03:50:00.070Z,79.10
2019-05-29T03:52:30.083Z,79.30
2019-05-29T03:54:58.837Z,78.70
2019-05-29T03:57:27.663Z,78.50
2019-05-29T03:59:57.089Z,78.60
2019-05-29T04:02:26.731Z,79.10
2019-05-29T04:04:55.360Z,78.90
2019-05-29T04:07:23.865Z,79.20
2019-05-29T04:09:52.305Z,79.30
2019-05-29T04:12:20.771Z,79.40
2019-05-29T04:14:49.478Z,79.10
2019-05-29T04:17:20.179Z,79.10
2019-05-29T04:19:48.602Z,79.10
2019-05-29T04:22:20.208Z,79.30
2019-05-29T04:24:50.472Z,79.80
2019-05-29T04:27:21.708Z,79.50
2019-05-29T04:29:50.307Z,79.70
2019-05-29T04:32:18.741Z,79.60
2019-05-29T04:34:47.181Z,79.90
2019-05-29T04:37:15.621Z,80.20
2019-05-29T04:39:44.067Z,80.00
2019-05-29T04:42:12.491Z,79.60
2019-05-29T04:44:41.276Z,79.10
2019-05-29T04:47:11.896Z,78.80
2019-05-29T04:49:40.106Z,78.50
2019-05-29T04:52:08.696Z,78.40
2019-05-29T04:54:37.658Z,78.20
2019-05-29T04:57:06.353Z,77.50
2019-05-29T04:59:35.060Z,77.40
2019-05-29T05:02:03.596Z,77.70
2019-05-29T05:04:33.124Z,77.80
2019-05-29T05:07:01.752Z,77.40
2019-05-29T05:09:31.235Z,77.50
2019-05-29T05:12:00.459Z,77.60
2019-05-29T05:14:29.601Z,77.80
2019-05-29T05:16:58.479Z,78.20
2019-05-29T05:19:26.962Z,77.80
2019-05-29T05:21:55.484Z,77.40
2019-05-29T05:24:23.930Z,77.40
2019-05-29T05:26:52.454Z,77.30
2019-05-29T05:29:20.989Z,77.30
2019-05-29T05:31:49.443Z,77.00
2019-05-29T05:34:17.877Z,76.50
2019-05-29T05:36:46.370Z,76.30
2019-05-29T05:39:14.800Z,76.00
2019-05-29T05:41:43.242Z,75.70
2019-05-29T05:44:11.671Z,75.00
2019-05-29T05:46:41.218Z,74.80
2019-05-29T05:49:09.849Z,74.50
2019-05-29T05:51:42.462Z,74.70
2019-05-29T05:54:08.432Z,74.50
2019-05-29T05:56:37.695Z,74.40
2019-05-29T05:59:06.345Z,74.30
2019-05-29T06:01:35.889Z,74.50
2019-05-29T06:04:04.716Z,74.10
2019-05-29T06:06:33.918Z,73.70
2019-05-29T06:09:02.647Z,73.10
2019-05-29T06:11:32.097Z,72.40
2019-05-29T06:14:00.724Z,72.50
2019-05-29T06:16:29.316Z,71.90
2019-05-29T06:18:57.743Z,71.80
2019-05-29T06:21:26.244Z,71.50
2019-05-29T06:23:54.689Z,71.30
2019-05-29T06:26:23.100Z,70.30
2019-05-29T06:28:51.603Z,70.80
2019-05-29T06:31:20.126Z,70.50
2019-05-29T06:33:48.553Z,70.70
2019-05-29T06:36:16.990Z,70.90
2019-05-29T06:38:45.488Z,71.30
2019-05-29T06:41:13.921Z,71.50
2019-05-29T06:43:42.352Z,71.20
2019-05-29T06:46:10.863Z,71.20
2019-05-29T06:48:45.458Z,70.80
2019-05-29T06:51:09.490Z,70.90
2019-05-29T06:53:38.022Z,70.60
2019-05-29T06:56:06.602Z,70.40
2019-05-29T06:58:35.904Z,70.70
2019-05-29T07:01:04.521Z,70.90
2019-05-29T07:03:33.024Z,70.50
2019-05-29T07:06:01.570Z,69.80
2019-05-29T07:08:38.974Z,69.50
2019-05-29T07:11:00.184Z,68.90
2019-05-29T07:13:28.613Z,68.70
2019-05-29T07:15:57.036Z,68.30
2019-05-29T07:18:25.516Z,67.30
2019-05-29T07:20:53.945Z,64.10
2019-05-29T07:23:22.458Z,65.00
2019-05-29T07:25:50.895Z,66.20
2019-05-29T07:28:19.320Z,64.60
2019-05-29T07:30:57.612Z,62.30
2019-05-29T07:33:18.134Z,63.50
2019-05-29T07:35:47.691Z,64.10
2019-05-29T07:38:16.308Z,63.30
2019-05-29T07:40:47.499Z,62.40
2019-05-29T07:43:14.927Z,62.20
2019-05-29T07:45:44.085Z,62.10
2019-05-29T07:48:12.556Z,61.70
2019-05-29T07:50:42.034Z,60.80
2019-05-29T07:53:10.718Z,59.40
2019-05-29T07:55:40.339Z,59.40
2019-05-29T07:58:08.966Z,59.20
2019-05-29T08:01:03.804Z,59.70
2019-05-29T08:03:08.208Z,59.80
2019-05-29T08:05:36.698Z,59.90
2019-05-29T08:08:05.188Z,60.20
2019-05-29T08:10:33.630Z,59.60
2019-05-29T08:13:02.063Z,59.90
2019-05-29T08:15:30.495Z,59.50
2019-05-29T08:17:58.991Z,59.70
2019-05-29T08:20:27.419Z,60.00
2019-05-29T08:22:55.856Z,60.50
2019-05-29T08:25:24.355Z,61.20
2019-05-29T08:27:52.783Z,60.30
2019-05-29T08:30:21.451Z,60.30
2019-05-29T08:32:51.146Z,60.20
2019-05-29T08:35:19.843Z,60.50
2019-05-29T08:37:49.139Z,62.10
2019-05-29T08:40:18.317Z,59.80
2019-05-29T08:42:47.406Z,60.00
2019-05-29T08:45:16.298Z,59.80
2019-05-29T08:47:45.609Z,59.30
2019-05-29T08:50:18.620Z,59.60
2019-05-29T08:52:45.968Z,57.90
2019-05-29T08:55:14.924Z,58.50
2019-05-29T08:57:44.253Z,57.60
2019-05-29T09:00:13.672Z,56.70
2019-05-29T09:02:42.568Z,55.70
2019-05-29T09:05:11.869Z,54.80
2019-05-29T09:07:40.291Z,53.70
2019-05-29T09:10:09.579Z,53.00
2019-05-29T09:12:37.995Z,51.00
2019-05-29T09:15:10.342Z,50.50
2019-05-29T09:17:39.151Z,49.60
2019-05-29T09:20:25.465Z,49.40
2019-05-29T09:22:38.675Z,49.10
2019-05-29T09:25:07.473Z,49.60
2019-05-29T09:27:35.899Z,50.50
2019-05-29T09:30:05.888Z,50.50
2019-05-29T09:32:49.653Z,49.80
2019-05-29T09:35:05.717Z,50.80
2019-05-29T09:37:34.133Z,50.40
2019-05-29T09:40:02.575Z,50.40
2019-05-29T09:42:31.000Z,49.70
2019-05-29T09:44:59.423Z,50.10
2019-05-29T09:47:27.886Z,49.40
2019-05-29T09:49:56.378Z,49.40
2019-05-29T09:52:24.801Z,49.30
2019-05-29T09:54:54.642Z,49.60
2019-05-29T09:57:23.233Z,49.50
2019-05-29T09:59:53.839Z,49.70
2019-05-29T10:02:21.843Z,50.30
2019-05-29T10:04:50.273Z,50.60
2019-05-29T10:07:18.777Z,50.50
2019-05-29T10:09:47.304Z,50.50
2019-05-29T10:12:15.846Z,50.90
2019-05-29T10:14:45.604Z,50.70
2019-05-29T10:17:14.074Z,50.80
2019-05-29T10:19:42.641Z,50.50
2019-05-29T10:22:11.074Z,49.70
2019-05-29T10:24:39.512Z,47.60
2019-05-29T10:27:07.947Z,47.40
2019-05-29T10:29:36.376Z,46.40
2019-05-29T10:32:04.871Z,44.80
2019-05-29T10:34:33.327Z,42.30
2019-05-29T10:37:01.799Z,42.80
2019-05-29T10:39:30.242Z,42.20
2019-05-29T10:41:58.687Z,43.50
2019-05-29T10:44:27.123Z,44.10
2019-05-29T10:46:56.579Z,47.90
2019-05-29T10:49:25.616Z,49.70
2019-05-29T10:52:12.898Z,50.90
2019-05-29T10:54:24.360Z,51.90
2019-05-29T10:56:53.043Z,51.80
2019-05-29T10:59:21.636Z,48.50
2019-05-29T11:01:51.262Z,50.70
2019-05-29T11:04:20.283Z,47.70
2019-05-29T11:06:49.985Z,48.20
2019-05-29T11:09:18.797Z,48.50
2019-05-29T11:11:48.462Z,48.90
2019-05-29T11:14:17.095Z,47.90
2019-05-29T11:16:46.852Z,47.90
2019-05-29T11:19:15.617Z,47.20
2019-05-29T11:21:44.045Z,45.10
2019-05-29T11:24:12.471Z,44.40
2019-05-29T11:26:40.889Z,44.80
2019-05-29T11:29:09.411Z,44.10
2019-05-29T11:31:37.839Z,42.70
2019-05-29T11:34:06.333Z,41.70
2019-05-29T11:36:34.762Z,41.30
2019-05-29T11:39:06.097Z,39.10
2019-05-29T11:41:33.435Z,39.00
2019-05-29T11:44:03.140Z,38.00
2019-05-29T11:46:31.884Z,37.30
2019-05-29T11:49:00.340Z,34.80
2019-05-29T11:51:28.775Z,34.70
2019-05-29T11:53:57.558Z,34.70
2019-05-29T11:56:26.201Z,33.80
2019-05-29T11:58:54.860Z,34.60
2019-05-29T12:01:23.424Z,32.40
2019-05-29T12:04:13.371Z,31.00
2019-05-29T12:06:21.997Z,31.80
2019-05-29T12:08:51.427Z,31.40
2019-05-29T12:11:20.020Z,31.50
2019-05-29T12:13:48.463Z,32.30
2019-05-29T12:16:16.936Z,32.30
2019-05-29T12:18:45.381Z,32.50
2019-05-29T12:21:13.859Z,33.50
2019-05-29T12:23:42.289Z,33.90
2019-05-29T12:26:21.717Z,34.50
2019-05-29T12:28:40.907Z,33.40
2019-05-29T12:31:09.416Z,33.80
2019-05-29T12:33:37.915Z,34.30
2019-05-29T12:36:06.663Z,34.40
2019-05-29T12:38:35.112Z,34.60
2019-05-29T12:41:03.826Z,34.40
2019-05-29T12:43:32.449Z,35.20
2019-05-29T12:46:01.891Z,35.00
2019-05-29T12:48:30.495Z,36.60
2019-05-29T12:51:00.294Z,35.90
2019-05-29T12:53:31.317Z,36.40
2019-05-29T12:56:00.643Z,35.00
2019-05-29T12:58:29.261Z,36.30
2019-05-29T13:00:58.532Z,35.70
2019-05-29T13:03:27.698Z,36.00
2019-05-29T13:05:56.142Z,35.10
2019-05-29T13:08:24.628Z,35.60
2019-05-29T13:10:54.164Z,35.30
2019-05-29T13:13:22.911Z,35.40
2019-05-29T13:15:51.621Z,35.70
2019-05-29T13:18:20.359Z,35.90
2019-05-29T13:20:48.784Z,35.90
2019-05-29T13:23:17.392Z,36.00
2019-05-29T13:25:46.040Z,36.80
2019-05-29T13:28:14.463Z,35.50
2019-05-29T13:30:42.889Z,35.70
2019-05-29T13:33:11.318Z,35.50
2019-05-29T13:35:41.383Z,33.90
2019-05-29T13:38:09.855Z,33.60
2019-05-29T13:40:38.356Z,34.10
2019-05-29T13:43:14.455Z,32.20
2019-05-29T13:45:36.958Z,32.00
2019-05-29T13:48:05.583Z,32.40
2019-05-29T13:50:34.162Z,32.40
2019-05-29T13:53:03.574Z,33.20
2019-05-29T13:55:32.210Z,32.90
2019-05-29T13:58:01.659Z,33.30
2019-05-29T14:00:34.161Z,35.10
2019-05-29T14:03:00.533Z,33.20
2019-05-29T14:05:29.027Z,33.60
2019-05-29T14:07:58.538Z,33.90
2019-05-29T14:10:27.197Z,34.00
2019-05-29T14:12:55.628Z,34.10
2019-05-29T14:15:24.128Z,34.70
2019-05-29T14:17:52.573Z,35.20
2019-05-29T14:20:21.435Z,35.70
2019-05-29T14:22:49.984Z,36.80
2019-05-29T14:25:18.635Z,37.00
2019-05-29T14:27:47.061Z,37.30
2019-05-29T14:30:16.275Z,36.90
2019-05-29T14:32:44.687Z,37.10
2019-05-29T14:35:13.523Z,37.60
2019-05-29T14:37:42.109Z,37.70
2019-05-29T14:40:12.420Z,37.70
2019-05-29T14:42:40.871Z,36.70
2019-05-29T14:45:10.490Z,37.30
2019-05-29T14:47:39.135Z,36.40
2019-05-29T14:50:08.949Z,35.70
2019-05-29T14:52:37.897Z,33.90
2019-05-29T14:55:07.101Z,33.40
2019-05-29T14:57:35.558Z,32.80
2019-05-29T15:00:20.888Z,33.80
2019-05-29T15:02:39.560Z,33.10
2019-05-29T15:05:09.597Z,33.50
2019-05-29T15:07:38.204Z,33.70
2019-05-29T15:10:21.398Z,32.60
2019-05-29T15:12:38.797Z,34.60
2019-05-29T15:15:08.813Z,35.30
2019-05-29T15:17:37.772Z,36.80
2019-05-29T15:20:09.362Z,35.40
2019-05-29T15:22:38.228Z,35.50
2019-05-29T15:25:17.142Z,35.00
2019-05-29T15:27:38.443Z,35.90
2019-05-29T15:30:10.958Z,38.80
2019-05-29T15:32:40.013Z,40.50
2019-05-29T15:35:13.783Z,41.00
2019-05-29T15:37:40.073Z,44.40
2019-05-29T15:40:10.722Z,46.90
2019-05-29T15:42:39.441Z,47.90
2019-05-29T15:45:09.925Z,49.70
2019-05-29T15:47:38.529Z,50.20
2019-05-29T15:50:11.806Z,50.90
2019-05-29T15:52:41.633Z,51.90
2019-05-29T15:55:27.315Z,53.20
2019-05-29T15:57:40.924Z,53.90
2019-05-29T16:00:11.481Z,55.90
2019-05-29T16:02:40.417Z,56.20
2019-05-29T16:05:11.431Z,55.20
2019-05-29T16:07:41.187Z,54.10
2019-05-29T16:10:14.398Z,54.70
2019-05-29T16:12:41.219Z,55.00
2019-05-29T16:15:11.254Z,54.70
2019-05-29T16:17:39.937Z,55.30
2019-05-29T16:20:10.362Z,56.00
2019-05-29T16:22:39.351Z,55.30
2019-05-29T16:25:08.837Z,55.40
2019-05-29T16:27:37.289Z,56.00
2019-05-29T16:30:11.376Z,55.40
2019-05-29T16:32:40.177Z,54.30
2019-05-29T16:35:10.935Z,54.00
2019-05-29T16:37:39.645Z,55.00
2019-05-29T16:40:11.618Z,55.20
2019-05-29T16:42:40.345Z,55.20
2019-05-29T16:45:14.242Z,55.60
2019-05-29T16:47:42.800Z,56.00
2019-05-29T16:50:14.752Z,55.90
2019-05-29T16:52:43.582Z,56.50
2019-05-29T16:55:15.306Z,56.90
2019-05-29T16:57:43.733Z,57.30
2019-05-29T17:00:13.807Z,57.50
2019-05-29T17:02:42.757Z,57.40
2019-05-29T17:05:11.542Z,57.90
2019-05-29T17:07:39.991Z,57.60
2019-05-29T17:10:09.520Z,57.70
2019-05-29T17:12:37.961Z,57.60
2019-05-29T17:15:11.069Z,57.50
2019-05-29T17:17:39.568Z,57.50
2019-05-29T17:20:11.800Z,57.20
2019-05-29T17:22:40.304Z,57.20
2019-05-29T17:25:10.569Z,57.90
2019-05-29T17:27:39.010Z,58.20
2019-05-29T17:30:11.055Z,58.70
2019-05-29T17:32:39.492Z,59.40
2019-05-29T17:35:09.240Z,60.00
2019-05-29T17:37:37.959Z,59.80
2019-05-29T17:40:09.820Z,58.50
2019-05-29T17:42:38.287Z,59.30
2019-05-29T17:45:11.790Z,58.50
2019-05-29T17:47:40.779Z,58.60
2019-05-29T17:50:09.596Z,59.10
2019-05-29T17:52:38.083Z,59.20
2019-05-29T17:55:07.247Z,60.20
2019-05-29T17:57:35.688Z,61.70
2019-05-29T18:00:09.695Z,61.90
2019-05-29T18:02:51.348Z,63.20
2019-05-29T18:05:08.780Z,64.30
2019-05-29T18:07:37.277Z,65.60
2019-05-29T18:10:06.351Z,65.30
2019-05-29T18:12:34.848Z,65.00
2019-05-29T18:15:04.906Z,67.70
2019-05-29T18:17:33.375Z,68.40
2019-05-29T18:20:02.094Z,69.70
2019-05-29T18:22:30.661Z,70.60
2019-05-29T18:24:59.731Z,71.10
2019-05-29T18:27:28.219Z,71.90
2019-05-29T18:29:56.689Z,71.40
2019-05-29T18:32:29.058Z,71.60
2019-05-29T18:34:57.676Z,72.10
2019-05-29T18:37:26.258Z,73.80
2019-05-29T18:39:54.822Z,74.60
2019-05-29T18:42:25.206Z,73.70
2019-05-29T18:44:53.447Z,73.30
2019-05-29T18:47:23.033Z,75.60
2019-05-29T18:49:51.736Z,75.50
2019-05-29T18:52:21.689Z,74.60
2019-05-29T18:54:50.446Z,75.20
2019-05-29T18:57:18.895Z,75.10
2019-05-29T18:59:47.332Z,75.60
2019-05-29T19:02:15.907Z,75.30
2019-05-29T19:04:44.427Z,75.70
2019-05-29T19:07:13.172Z,75.10
2019-05-29T19:09:41.936Z,75.20
2019-05-29T19:12:10.364Z,75.70
2019-05-29T19:14:38.820Z,74.70
2019-05-29T19:17:07.297Z,74.40
2019-05-29T19:19:35.837Z,73.40
2019-05-29T19:22:04.408Z,73.20
2019-05-29T19:24:32.929Z,73.40
2019-05-29T19:27:01.557Z,74.60
2019-05-29T19:29:31.350Z,75.60
2019-05-29T19:31:59.866Z,76.50
2019-05-29T19:34:29.405Z,76.80
2019-05-29T19:36:58.057Z,76.70
2019-05-29T19:39:27.875Z,77.40
2019-05-29T19:41:56.553Z,76.90
2019-05-29T19:44:26.177Z,77.40
2019-05-29T19:46:54.958Z,77.60
2019-05-29T19:49:25.422Z,77.70
2019-05-29T19:51:53.618Z,79.20
2019-05-29T19:54:22.096Z,79.10
2019-05-29T19:56:50.641Z,79.20
2019-05-29T19:59:19.266Z,78.70
2019-05-29T20:01:48.293Z,78.80
2019-05-29T20:04:16.792Z,78.70
2019-05-29T20:06:45.236Z,79.60
2019-05-29T20:09:13.730Z,79.00
2019-05-29T20:11:42.197Z,78.10
2019-05-29T20:14:10.734Z,78.60
2019-05-29T20:16:39.428Z,79.10
2019-05-29T20:19:08.015Z,79.10
2019-05-29T20:21:36.806Z,78.90
2019-05-29T20:24:05.499Z,78.80
2019-05-29T20:26:35.127Z,78.30
2019-05-29T20:29:03.966Z,78.20
2019-05-29T20:31:32.445Z,78.30
2019-05-29T20:34:00.933Z,78.70
2019-05-29T20:36:29.381Z,78.20
2019-05-29T20:38:57.814Z,77.30
2019-05-29T20:41:26.294Z,77.10
2019-05-29T20:43:54.780Z,77.80
2019-05-29T20:46:23.216Z,78.30
2019-05-29T20:48:51.650Z,77.50
2019-05-29T20:51:20.088Z,77.00
2019-05-29T20:53:48.516Z,77.20
2019-05-29T20:56:16.973Z,77.20
2019-05-29T20:58:45.484Z,77.70
2019-05-29T21:01:13.947Z,77.90
2019-05-29T21:03:42.612Z,78.00
2019-05-29T21:06:11.192Z,78.30
2019-05-29T21:08:40.888Z,78.10
2019-05-29T21:11:09.652Z,76.70
2019-05-29T21:13:38.093Z,76.40
2019-05-29T21:16:06.882Z,77.00
2019-05-29T21:18:35.848Z,77.30
2019-05-29T21:21:04.886Z,78.30
2019-05-29T21:23:34.246Z,78.40
2019-05-29T21:26:02.834Z,78.90
2019-05-29T21:28:39.789Z,78.70
2019-05-29T21:31:01.453Z,77.80
2019-05-29T21:33:29.895Z,77.10
2019-05-29T21:35:58.357Z,76.90
2019-05-29T21:38:26.799Z,77.50
2019-05-29T21:40:55.252Z,77.00
2019-05-29T21:43:23.794Z,76.60
2019-05-29T21:45:52.548Z,76.40
2019-05-29T21:48:21.322Z,76.80
2019-05-29T21:50:50.025Z,77.60
2019-05-29T21:53:18.520Z,78.00
2019-05-29T21:55:47.829Z,78.40
2019-05-29T21:58:16.665Z,78.90
2019-05-29T22:00:49.895Z,79.10
2019-05-29T22:03:18.644Z,79.00
2019-05-29T22:05:47.242Z,79.00
2019-05-29T22:08:15.680Z,78.90
2019-05-29T22:10:44.698Z,78.60
2019-05-29T22:13:13.304Z,78.50
2019-05-29T22:15:41.744Z,78.90
2019-05-29T22:18:10.201Z,78.90
2019-05-29T22:20:42.746Z,78.90
2019-05-29T22:23:11.200Z,79.20
2019-05-29T22:25:39.635Z,79.20
2019-05-29T22:28:08.087Z,79.70
2019-05-29T22:30:36.531Z,79.20
2019-05-29T22:33:05.057Z,79.70
2019-05-29T22:35:33.505Z,79.50
2019-05-29T22:38:01.984Z,80.00
2019-05-29T22:40:30.490Z,80.30
2019-05-29T22:42:59.848Z,80.60
2019-05-29T22:45:28.488Z,79.40
2019-05-29T22:47:57.803Z,79.20
2019-05-29T22:50:26.352Z,79.70
2019-05-29T22:52:55.871Z,79.80
2019-05-29T22:55:24.421Z,79.50
2019-05-29T22:57:53.808Z,79.60
